Impacts METAR Board
IDs:

KSAN - San Diego Intl Arpt, CA, US

Updated at: 0100 UTC 31 May 2020
Potential Impact None Slight Moderate High
Time 30/13Z 30/14Z 30/15Z 30/16Z 30/17Z 30/18Z 30/19Z 30/20Z 30/21Z 30/22Z 30/23Z 31/00Z 31/01Z
Temp66 66 67 68 69 70 71 72 71 72 71 71 71
Dewpt54 53 54 53 53 54 54 54 56 56 57 57 56
Altim29.99 30.00 30.01 30.01 30.01 30.00 30.00 29.99 29.98 29.97 29.97 29.96 29.94
VIS10 10 10 10 10 10 10 10 10 10 10 10 10
CIG24 25 25 25 250 250 250 250 250 250 -- -- --
CoverOVCOVCOVCBKNBKNBKNBKNBKNBKNBKNSCTSCTSCT
FltCatMVFRMVFRMVFRMVFRVFRVFRVFRVFRVFRVFRVFRVFRVFR
WX--------------------------
WDir340350330330310300330290310320310310320
WSpd6 6 7 8 10 9 7 12 13 12 10 9 9
WGst-- -- -- -- -- -- -- -- -- 18 -- 16 --
Raw hourly METARs
KSAN 301251Z 34006KT 10SM OVC024 19/12 A2999 RMK AO2 SLP155 T01890122
KSAN 301351Z 35006KT 10SM OVC025 19/12 A3000 RMK AO2 SLP157 T01890117
KSAN 301451Z 33007KT 10SM OVC025 19/12 A3001 RMK AO2 SLP161 T01940122 51011
KSAN 301551Z 33008KT 10SM BKN025 BKN250 20/12 A3001 RMK AO2 SLP162 T02000117
KSAN 301651Z 31010KT 10SM FEW025 BKN250 21/12 A3001 RMK AO2 SLP161 T02060117
KSAN 301751Z 30009KT 10SM FEW025 BKN250 21/12 A3000 RMK AO2 SLP160 T02110122 10211 20183 58001
KSAN 301851Z 33007KT 290V010 10SM FEW025 BKN250 22/12 A3000 RMK AO2 SLP158 T02170122
KSAN 301951Z 29012KT 10SM FEW025 BKN250 22/12 A2999 RMK AO2 SLP155 T02220122
KSAN 302051Z 31013KT 10SM FEW025 BKN250 22/13 A2998 RMK AO2 SLP153 T02170133 58006
KSAN 302151Z 32012G18KT 10SM FEW025 FEW160 SCT200 BKN250 22/13 A2997 RMK AO2 SLP150 T02220133
KSAN 302251Z 31010KT 10SM FEW025 FEW160 SCT200 SCT250 22/14 A2997 RMK AO2 SLP147 T02170139
KSAN 302351Z 31009G16KT 10SM FEW025 FEW200 SCT250 22/14 A2996 RMK AO2 SLP144 T02170139 10228 20200 56009
KSAN 310051Z 32009KT 10SM FEW025 FEW160 SCT200 SCT250 22/13 A2994 RMK AO2 SLP138 ACSL DSNT NE T02170133



Page loaded:  01:49 UTC  |   06:49 PM Pacific  |   07:49 PM Mountain  |   08:49 PM Central  |   09:49 PM Eastern

 

ADVISORIES

FORECASTS

FORECASTS

OBSERVATIONS

USER TOOLS

ABOUT US